sensor_id;sensor_type;location;lat;lon;timestamp;P1;durP1;ratioP1;P2;durP2;ratioP2
35506;SDS011;36461;52.018;21.036;2023-04-06T00:00:26;11.00;;;6.00;;
35506;SDS011;36461;52.018;21.036;2023-04-06T00:03:13;11.20;;;6.30;;
35506;SDS011;36461;52.018;21.036;2023-04-06T00:05:42;11.90;;;6.30;;
35506;SDS011;36461;52.018;21.036;2023-04-06T00:08:10;10.50;;;6.10;;
35506;SDS011;36461;52.018;21.036;2023-04-06T00:10:38;8.20;;;5.60;;
35506;SDS011;36461;52.018;21.036;2023-04-06T00:13:07;10.70;;;6.40;;
35506;SDS011;36461;52.018;21.036;2023-04-06T00:15:35;9.10;;;4.90;;
35506;SDS011;36461;52.018;21.036;2023-04-06T00:18:03;8.00;;;5.30;;
35506;SDS011;36461;52.018;21.036;2023-04-06T00:20:31;8.10;;;5.20;;
35506;SDS011;36461;52.018;21.036;2023-04-06T00:23:00;10.30;;;5.90;;
35506;SDS011;36461;52.018;21.036;2023-04-06T00:25:29;9.80;;;5.90;;
35506;SDS011;36461;52.018;21.036;2023-04-06T00:27:57;11.00;;;5.60;;
35506;SDS011;36461;52.018;21.036;2023-04-06T00:30:26;8.50;;;5.40;;
35506;SDS011;36461;52.018;21.036;2023-04-06T00:32:54;9.90;;;6.40;;
35506;SDS011;36461;52.018;21.036;2023-04-06T00:35:22;10.40;;;6.20;;
35506;SDS011;36461;52.018;21.036;2023-04-06T00:37:52;10.10;;;6.00;;
35506;SDS011;36461;52.018;21.036;2023-04-06T00:40:20;10.60;;;5.50;;
35506;SDS011;36461;52.018;21.036;2023-04-06T00:42:48;9.30;;;5.30;;
35506;SDS011;36461;52.018;21.036;2023-04-06T00:45:17;10.60;;;6.20;;
35506;SDS011;36461;52.018;21.036;2023-04-06T00:47:46;9.10;;;6.00;;
35506;SDS011;36461;52.018;21.036;2023-04-06T00:50:15;10.60;;;6.40;;
35506;SDS011;36461;52.018;21.036;2023-04-06T00:52:43;12.40;;;6.90;;
35506;SDS011;36461;52.018;21.036;2023-04-06T00:55:12;14.80;;;6.80;;
35506;SDS011;36461;52.018;21.036;2023-04-06T00:57:42;18.50;;;8.50;;
35506;SDS011;36461;52.018;21.036;2023-04-06T01:00:10;14.00;;;7.30;;
35506;SDS011;36461;52.018;21.036;2023-04-06T01:02:42;15.70;;;7.80;;
35506;SDS011;36461;52.018;21.036;2023-04-06T01:05:14;12.60;;;6.90;;
35506;SDS011;36461;52.018;21.036;2023-04-06T01:10:29;12.60;;;6.70;;
35506;SDS011;36461;52.018;21.036;2023-04-06T01:13:12;10.80;;;6.50;;
35506;SDS011;36461;52.018;21.036;2023-04-06T01:15:45;11.50;;;6.20;;
35506;SDS011;36461;52.018;21.036;2023-04-06T01:18:18;12.50;;;6.70;;
35506;SDS011;36461;52.018;21.036;2023-04-06T01:20:55;8.70;;;5.90;;
35506;SDS011;36461;52.018;21.036;2023-04-06T01:23:26;8.70;;;5.30;;
35506;SDS011;36461;52.018;21.036;2023-04-06T01:25:58;10.50;;;5.20;;
35506;SDS011;36461;52.018;21.036;2023-04-06T01:28:29;12.00;;;6.20;;
35506;SDS011;36461;52.018;21.036;2023-04-06T01:31:12;10.00;;;5.00;;
35506;SDS011;36461;52.018;21.036;2023-04-06T01:33:47;9.20;;;5.20;;
35506;SDS011;36461;52.018;21.036;2023-04-06T01:36:21;7.60;;;4.80;;
35506;SDS011;36461;52.018;21.036;2023-04-06T01:39:01;8.40;;;5.50;;
35506;SDS011;36461;52.018;21.036;2023-04-06T01:41:36;8.30;;;5.20;;
35506;SDS011;36461;52.018;21.036;2023-04-06T01:44:08;9.30;;;5.70;;
35506;SDS011;36461;52.018;21.036;2023-04-06T01:46:41;10.90;;;6.20;;
35506;SDS011;36461;52.018;21.036;2023-04-06T01:49:16;11.30;;;5.60;;
35506;SDS011;36461;52.018;21.036;2023-04-06T01:51:53;8.70;;;5.30;;
35506;SDS011;36461;52.018;21.036;2023-04-06T01:54:26;9.30;;;5.60;;
35506;SDS011;36461;52.018;21.036;2023-04-06T01:57:07;7.90;;;5.00;;
35506;SDS011;36461;52.018;21.036;2023-04-06T01:59:47;8.10;;;4.90;;
35506;SDS011;36461;52.018;21.036;2023-04-06T02:02:25;9.80;;;5.60;;
35506;SDS011;36461;52.018;21.036;2023-04-06T02:05:02;10.30;;;6.30;;
35506;SDS011;36461;52.018;21.036;2023-04-06T02:07:33;11.40;;;5.50;;
35506;SDS011;36461;52.018;21.036;2023-04-06T02:10:10;10.50;;;6.20;;
35506;SDS011;36461;52.018;21.036;2023-04-06T02:12:45;9.20;;;5.60;;
35506;SDS011;36461;52.018;21.036;2023-04-06T02:15:20;10.40;;;5.60;;
35506;SDS011;36461;52.018;21.036;2023-04-06T02:25:24;10.50;;;5.90;;
35506;SDS011;36461;52.018;21.036;2023-04-06T02:27:53;9.50;;;5.60;;
35506;SDS011;36461;52.018;21.036;2023-04-06T02:30:21;8.80;;;5.50;;
35506;SDS011;36461;52.018;21.036;2023-04-06T02:32:49;10.10;;;5.50;;
35506;SDS011;36461;52.018;21.036;2023-04-06T02:35:18;9.90;;;5.90;;
35506;SDS011;36461;52.018;21.036;2023-04-06T02:37:46;9.50;;;5.90;;
35506;SDS011;36461;52.018;21.036;2023-04-06T02:40:15;8.70;;;5.00;;
35506;SDS011;36461;52.018;21.036;2023-04-06T02:42:43;9.20;;;5.60;;
35506;SDS011;36461;52.018;21.036;2023-04-06T02:45:12;8.80;;;5.20;;
35506;SDS011;36461;52.018;21.036;2023-04-06T02:47:43;9.50;;;5.80;;
35506;SDS011;36461;52.018;21.036;2023-04-06T02:50:14;10.00;;;5.70;;
35506;SDS011;36461;52.018;21.036;2023-04-06T02:52:49;9.60;;;5.20;;
35506;SDS011;36461;52.018;21.036;2023-04-06T02:55:17;8.80;;;5.60;;
35506;SDS011;36461;52.018;21.036;2023-04-06T02:57:47;10.10;;;5.60;;
35506;SDS011;36461;52.018;21.036;2023-04-06T03:00:16;10.90;;;5.90;;
35506;SDS011;36461;52.018;21.036;2023-04-06T03:02:44;9.10;;;5.50;;
35506;SDS011;36461;52.018;21.036;2023-04-06T03:05:15;11.30;;;5.40;;
35506;SDS011;36461;52.018;21.036;2023-04-06T03:07:44;7.60;;;5.10;;
35506;SDS011;36461;52.018;21.036;2023-04-06T03:10:17;8.40;;;5.40;;
35506;SDS011;36461;52.018;21.036;2023-04-06T03:12:47;9.30;;;5.00;;
35506;SDS011;36461;52.018;21.036;2023-04-06T03:15:17;10.20;;;5.40;;
35506;SDS011;36461;52.018;21.036;2023-04-06T03:17:50;8.90;;;5.20;;
35506;SDS011;36461;52.018;21.036;2023-04-06T03:20:30;8.40;;;4.70;;
35506;SDS011;36461;52.018;21.036;2023-04-06T03:22:58;9.70;;;5.40;;
35506;SDS011;36461;52.018;21.036;2023-04-06T03:25:29;8.80;;;5.20;;
35506;SDS011;36461;52.018;21.036;2023-04-06T03:28:00;9.60;;;5.10;;
35506;SDS011;36461;52.018;21.036;2023-04-06T03:30:29;8.90;;;5.10;;
35506;SDS011;36461;52.018;21.036;2023-04-06T03:32:58;7.70;;;4.70;;
35506;SDS011;36461;52.018;21.036;2023-04-06T03:35:27;11.10;;;5.30;;
35506;SDS011;36461;52.018;21.036;2023-04-06T03:37:57;9.50;;;4.80;;
35506;SDS011;36461;52.018;21.036;2023-04-06T03:40:25;8.90;;;5.00;;
35506;SDS011;36461;52.018;21.036;2023-04-06T03:42:53;9.00;;;5.00;;
35506;SDS011;36461;52.018;21.036;2023-04-06T03:45:22;10.20;;;5.30;;
35506;SDS011;36461;52.018;21.036;2023-04-06T03:47:50;9.60;;;5.20;;
35506;SDS011;36461;52.018;21.036;2023-04-06T03:50:19;9.30;;;5.30;;
35506;SDS011;36461;52.018;21.036;2023-04-06T03:52:47;8.60;;;5.50;;
35506;SDS011;36461;52.018;21.036;2023-04-06T03:55:15;11.00;;;5.50;;
35506;SDS011;36461;52.018;21.036;2023-04-06T03:57:43;9.20;;;5.80;;
35506;SDS011;36461;52.018;21.036;2023-04-06T04:00:11;9.80;;;5.10;;
35506;SDS011;36461;52.018;21.036;2023-04-06T04:02:40;9.60;;;5.30;;
35506;SDS011;36461;52.018;21.036;2023-04-06T04:05:09;8.70;;;5.10;;
35506;SDS011;36461;52.018;21.036;2023-04-06T04:07:37;9.40;;;5.00;;
35506;SDS011;36461;52.018;21.036;2023-04-06T04:10:05;9.40;;;5.00;;
35506;SDS011;36461;52.018;21.036;2023-04-06T04:12:34;9.90;;;6.30;;
35506;SDS011;36461;52.018;21.036;2023-04-06T04:15:03;9.80;;;5.60;;
35506;SDS011;36461;52.018;21.036;2023-04-06T04:17:31;10.00;;;5.40;;
35506;SDS011;36461;52.018;21.036;2023-04-06T04:19:59;9.80;;;5.70;;
35506;SDS011;36461;52.018;21.036;2023-04-06T04:22:27;9.40;;;5.30;;
35506;SDS011;36461;52.018;21.036;2023-04-06T04:24:56;11.40;;;5.60;;
35506;SDS011;36461;52.018;21.036;2023-04-06T04:27:24;10.20;;;5.30;;
35506;SDS011;36461;52.018;21.036;2023-04-06T04:29:53;11.00;;;5.80;;
35506;SDS011;36461;52.018;21.036;2023-04-06T04:32:21;9.60;;;5.60;;
35506;SDS011;36461;52.018;21.036;2023-04-06T04:34:49;12.40;;;5.90;;
35506;SDS011;36461;52.018;21.036;2023-04-06T04:37:29;10.00;;;5.30;;
35506;SDS011;36461;52.018;21.036;2023-04-06T04:39:58;12.10;;;5.70;;
35506;SDS011;36461;52.018;21.036;2023-04-06T04:42:28;10.10;;;5.30;;
35506;SDS011;36461;52.018;21.036;2023-04-06T04:44:56;11.70;;;6.30;;
35506;SDS011;36461;52.018;21.036;2023-04-06T04:47:34;12.00;;;6.00;;
35506;SDS011;36461;52.018;21.036;2023-04-06T04:50:04;11.00;;;5.90;;
35506;SDS011;36461;52.018;21.036;2023-04-06T04:52:32;10.40;;;5.50;;
35506;SDS011;36461;52.018;21.036;2023-04-06T04:55:12;12.30;;;6.00;;
35506;SDS011;36461;52.018;21.036;2023-04-06T04:57:41;11.50;;;6.50;;
35506;SDS011;36461;52.018;21.036;2023-04-06T05:00:10;12.10;;;6.60;;
35506;SDS011;36461;52.018;21.036;2023-04-06T05:02:41;15.80;;;8.20;;
35506;SDS011;36461;52.018;21.036;2023-04-06T05:05:15;11.40;;;6.00;;
35506;SDS011;36461;52.018;21.036;2023-04-06T05:07:43;12.10;;;6.00;;
35506;SDS011;36461;52.018;21.036;2023-04-06T05:10:19;9.10;;;5.50;;
35506;SDS011;36461;52.018;21.036;2023-04-06T05:12:52;12.90;;;6.80;;
35506;SDS011;36461;52.018;21.036;2023-04-06T05:15:21;15.30;;;7.30;;
35506;SDS011;36461;52.018;21.036;2023-04-06T05:17:50;18.80;;;8.80;;
35506;SDS011;36461;52.018;21.036;2023-04-06T05:20:21;11.10;;;5.70;;
35506;SDS011;36461;52.018;21.036;2023-04-06T05:22:50;12.60;;;6.50;;
35506;SDS011;36461;52.018;21.036;2023-04-06T05:25:18;11.70;;;6.10;;
35506;SDS011;36461;52.018;21.036;2023-04-06T05:27:47;11.50;;;6.10;;
35506;SDS011;36461;52.018;21.036;2023-04-06T05:30:35;12.60;;;6.30;;
35506;SDS011;36461;52.018;21.036;2023-04-06T05:33:04;11.10;;;5.10;;
35506;SDS011;36461;52.018;21.036;2023-04-06T05:35:45;10.80;;;5.90;;
35506;SDS011;36461;52.018;21.036;2023-04-06T05:38:14;10.20;;;5.40;;
35506;SDS011;36461;52.018;21.036;2023-04-06T05:40:42;10.00;;;5.20;;
35506;SDS011;36461;52.018;21.036;2023-04-06T05:43:13;10.70;;;5.20;;
35506;SDS011;36461;52.018;21.036;2023-04-06T05:45:46;9.70;;;4.80;;
35506;SDS011;36461;52.018;21.036;2023-04-06T05:48:14;8.20;;;4.50;;
35506;SDS011;36461;52.018;21.036;2023-04-06T05:50:42;9.00;;;4.40;;
35506;SDS011;36461;52.018;21.036;2023-04-06T05:53:11;9.10;;;4.80;;
35506;SDS011;36461;52.018;21.036;2023-04-06T05:55:42;10.70;;;5.00;;
35506;SDS011;36461;52.018;21.036;2023-04-06T05:58:14;9.30;;;4.50;;
35506;SDS011;36461;52.018;21.036;2023-04-06T06:00:43;6.70;;;4.00;;
35506;SDS011;36461;52.018;21.036;2023-04-06T06:03:14;8.20;;;4.80;;
35506;SDS011;36461;52.018;21.036;2023-04-06T06:05:47;8.30;;;4.70;;
35506;SDS011;36461;52.018;21.036;2023-04-06T06:08:19;6.90;;;4.20;;
35506;SDS011;36461;52.018;21.036;2023-04-06T06:10:48;8.70;;;4.30;;
35506;SDS011;36461;52.018;21.036;2023-04-06T06:13:19;9.60;;;3.90;;
35506;SDS011;36461;52.018;21.036;2023-04-06T06:15:47;7.60;;;3.90;;
35506;SDS011;36461;52.018;21.036;2023-04-06T06:18:16;5.70;;;3.70;;
35506;SDS011;36461;52.018;21.036;2023-04-06T06:20:45;5.70;;;3.20;;
35506;SDS011;36461;52.018;21.036;2023-04-06T06:23:14;9.60;;;4.20;;
35506;SDS011;36461;52.018;21.036;2023-04-06T06:25:42;9.60;;;4.50;;
35506;SDS011;36461;52.018;21.036;2023-04-06T06:28:10;10.80;;;4.60;;
35506;SDS011;36461;52.018;21.036;2023-04-06T06:30:38;7.20;;;3.80;;
35506;SDS011;36461;52.018;21.036;2023-04-06T06:33:06;9.30;;;4.10;;
35506;SDS011;36461;52.018;21.036;2023-04-06T06:35:35;5.40;;;3.90;;
35506;SDS011;36461;52.018;21.036;2023-04-06T06:38:03;6.50;;;3.70;;
35506;SDS011;36461;52.018;21.036;2023-04-06T06:40:33;6.70;;;3.90;;
35506;SDS011;36461;52.018;21.036;2023-04-06T06:43:01;8.30;;;3.90;;
35506;SDS011;36461;52.018;21.036;2023-04-06T06:45:36;7.90;;;4.10;;
35506;SDS011;36461;52.018;21.036;2023-04-06T06:48:05;8.40;;;3.80;;
35506;SDS011;36461;52.018;21.036;2023-04-06T06:50:33;8.00;;;4.40;;
35506;SDS011;36461;52.018;21.036;2023-04-06T06:53:01;6.50;;;3.90;;
35506;SDS011;36461;52.018;21.036;2023-04-06T06:55:30;6.60;;;3.80;;
35506;SDS011;36461;52.018;21.036;2023-04-06T06:57:58;6.70;;;3.70;;
35506;SDS011;36461;52.018;21.036;2023-04-06T07:00:26;4.80;;;3.30;;
35506;SDS011;36461;52.018;21.036;2023-04-06T07:02:55;9.70;;;4.10;;
35506;SDS011;36461;52.018;21.036;2023-04-06T07:05:23;6.40;;;3.60;;
35506;SDS011;36461;52.018;21.036;2023-04-06T07:07:57;7.40;;;3.60;;
35506;SDS011;36461;52.018;21.036;2023-04-06T07:10:26;7.60;;;3.30;;
35506;SDS011;36461;52.018;21.036;2023-04-06T07:12:54;7.00;;;3.50;;
35506;SDS011;36461;52.018;21.036;2023-04-06T07:15:22;7.00;;;3.80;;
35506;SDS011;36461;52.018;21.036;2023-04-06T07:17:51;7.10;;;3.50;;
35506;SDS011;36461;52.018;21.036;2023-04-06T07:20:20;8.80;;;3.80;;
35506;SDS011;36461;52.018;21.036;2023-04-06T07:22:48;7.00;;;3.60;;
35506;SDS011;36461;52.018;21.036;2023-04-06T07:25:16;6.00;;;3.50;;
35506;SDS011;36461;52.018;21.036;2023-04-06T07:27:44;8.20;;;3.20;;
35506;SDS011;36461;52.018;21.036;2023-04-06T07:30:12;6.50;;;3.20;;
35506;SDS011;36461;52.018;21.036;2023-04-06T07:32:40;5.70;;;3.20;;
35506;SDS011;36461;52.018;21.036;2023-04-06T07:35:09;6.20;;;3.60;;
35506;SDS011;36461;52.018;21.036;2023-04-06T07:37:37;5.80;;;3.60;;
35506;SDS011;36461;52.018;21.036;2023-04-06T07:40:05;6.60;;;3.30;;
35506;SDS011;36461;52.018;21.036;2023-04-06T07:42:34;6.60;;;3.10;;
35506;SDS011;36461;52.018;21.036;2023-04-06T07:45:04;6.50;;;3.20;;
35506;SDS011;36461;52.018;21.036;2023-04-06T07:47:33;8.10;;;3.00;;
35506;SDS011;36461;52.018;21.036;2023-04-06T07:50:01;6.10;;;3.30;;
35506;SDS011;36461;52.018;21.036;2023-04-06T07:52:29;6.90;;;3.50;;
35506;SDS011;36461;52.018;21.036;2023-04-06T07:54:59;6.00;;;3.40;;
35506;SDS011;36461;52.018;21.036;2023-04-06T07:57:28;5.30;;;3.60;;
35506;SDS011;36461;52.018;21.036;2023-04-06T07:59:56;7.70;;;3.90;;
35506;SDS011;36461;52.018;21.036;2023-04-06T08:02:24;7.60;;;3.60;;
35506;SDS011;36461;52.018;21.036;2023-04-06T08:04:53;8.10;;;4.00;;
35506;SDS011;36461;52.018;21.036;2023-04-06T08:07:21;7.60;;;4.20;;
35506;SDS011;36461;52.018;21.036;2023-04-06T08:09:50;8.90;;;4.10;;
35506;SDS011;36461;52.018;21.036;2023-04-06T08:12:18;6.40;;;4.10;;
35506;SDS011;36461;52.018;21.036;2023-04-06T08:14:46;6.00;;;3.50;;
35506;SDS011;36461;52.018;21.036;2023-04-06T08:17:15;6.30;;;4.00;;
35506;SDS011;36461;52.018;21.036;2023-04-06T08:19:43;5.70;;;3.60;;
35506;SDS011;36461;52.018;21.036;2023-04-06T08:22:12;5.90;;;3.20;;
35506;SDS011;36461;52.018;21.036;2023-04-06T08:24:40;7.40;;;3.20;;
35506;SDS011;36461;52.018;21.036;2023-04-06T08:27:08;6.20;;;3.10;;
35506;SDS011;36461;52.018;21.036;2023-04-06T08:29:36;8.60;;;3.40;;
35506;SDS011;36461;52.018;21.036;2023-04-06T08:32:04;5.40;;;3.10;;
35506;SDS011;36461;52.018;21.036;2023-04-06T08:34:33;5.30;;;3.10;;
35506;SDS011;36461;52.018;21.036;2023-04-06T08:37:01;5.70;;;3.20;;
35506;SDS011;36461;52.018;21.036;2023-04-06T08:39:29;6.10;;;3.70;;
35506;SDS011;36461;52.018;21.036;2023-04-06T08:41:58;6.20;;;3.50;;
35506;SDS011;36461;52.018;21.036;2023-04-06T08:44:28;6.10;;;3.80;;
35506;SDS011;36461;52.018;21.036;2023-04-06T08:46:58;11.20;;;4.30;;
35506;SDS011;36461;52.018;21.036;2023-04-06T08:49:27;5.50;;;3.30;;
35506;SDS011;36461;52.018;21.036;2023-04-06T08:51:55;6.60;;;3.90;;
35506;SDS011;36461;52.018;21.036;2023-04-06T08:54:25;8.50;;;3.80;;
35506;SDS011;36461;52.018;21.036;2023-04-06T08:56:53;6.00;;;3.50;;
35506;SDS011;36461;52.018;21.036;2023-04-06T08:59:21;6.50;;;4.00;;
35506;SDS011;36461;52.018;21.036;2023-04-06T09:01:51;5.90;;;3.70;;
35506;SDS011;36461;52.018;21.036;2023-04-06T09:04:23;7.30;;;4.10;;
35506;SDS011;36461;52.018;21.036;2023-04-06T09:06:51;7.10;;;3.60;;
35506;SDS011;36461;52.018;21.036;2023-04-06T09:09:20;7.30;;;3.80;;
35506;SDS011;36461;52.018;21.036;2023-04-06T09:11:51;6.70;;;3.50;;
35506;SDS011;36461;52.018;21.036;2023-04-06T09:14:33;4.90;;;3.50;;
35506;SDS011;36461;52.018;21.036;2023-04-06T09:17:05;7.80;;;3.40;;
35506;SDS011;36461;52.018;21.036;2023-04-06T09:19:44;5.60;;;3.10;;
35506;SDS011;36461;52.018;21.036;2023-04-06T09:22:14;6.30;;;3.40;;
35506;SDS011;36461;52.018;21.036;2023-04-06T09:24:43;4.60;;;3.30;;
35506;SDS011;36461;52.018;21.036;2023-04-06T09:27:14;7.50;;;4.10;;
35506;SDS011;36461;52.018;21.036;2023-04-06T09:29:43;4.20;;;3.00;;
35506;SDS011;36461;52.018;21.036;2023-04-06T09:32:12;5.30;;;3.40;;
35506;SDS011;36461;52.018;21.036;2023-04-06T09:34:44;6.70;;;3.60;;
35506;SDS011;36461;52.018;21.036;2023-04-06T09:37:18;6.50;;;4.00;;
35506;SDS011;36461;52.018;21.036;2023-04-06T09:39:47;5.90;;;3.80;;
35506;SDS011;36461;52.018;21.036;2023-04-06T09:42:24;7.30;;;4.00;;
35506;SDS011;36461;52.018;21.036;2023-04-06T09:44:54;7.60;;;4.40;;
35506;SDS011;36461;52.018;21.036;2023-04-06T09:47:22;7.10;;;4.30;;
35506;SDS011;36461;52.018;21.036;2023-04-06T09:49:56;8.20;;;4.30;;
35506;SDS011;36461;52.018;21.036;2023-04-06T09:52:27;6.30;;;4.00;;
35506;SDS011;36461;52.018;21.036;2023-04-06T09:55:05;6.90;;;4.10;;
35506;SDS011;36461;52.018;21.036;2023-04-06T09:57:37;7.70;;;4.30;;
35506;SDS011;36461;52.018;21.036;2023-04-06T10:00:06;7.00;;;4.20;;
35506;SDS011;36461;52.018;21.036;2023-04-06T10:05:33;9.10;;;5.00;;
35506;SDS011;36461;52.018;21.036;2023-04-06T10:08:22;6.90;;;4.50;;
35506;SDS011;36461;52.018;21.036;2023-04-06T10:10:53;12.00;;;5.90;;
35506;SDS011;36461;52.018;21.036;2023-04-06T10:13:23;7.60;;;4.90;;
35506;SDS011;36461;52.018;21.036;2023-04-06T10:15:52;13.40;;;9.10;;
35506;SDS011;36461;52.018;21.036;2023-04-06T10:18:22;7.50;;;5.50;;
35506;SDS011;36461;52.018;21.036;2023-04-06T10:20:51;11.80;;;7.30;;
35506;SDS011;36461;52.018;21.036;2023-04-06T10:23:35;7.80;;;5.40;;
35506;SDS011;36461;52.018;21.036;2023-04-06T10:26:12;9.90;;;6.40;;
35506;SDS011;36461;52.018;21.036;2023-04-06T10:28:45;11.90;;;7.70;;
35506;SDS011;36461;52.018;21.036;2023-04-06T10:31:14;7.50;;;5.60;;
35506;SDS011;36461;52.018;21.036;2023-04-06T10:33:52;17.10;;;8.30;;
35506;SDS011;36461;52.018;21.036;2023-04-06T10:36:25;11.30;;;6.50;;
35506;SDS011;36461;52.018;21.036;2023-04-06T10:39:05;12.80;;;6.70;;
35506;SDS011;36461;52.018;21.036;2023-04-06T10:41:41;18.40;;;8.40;;
35506;SDS011;36461;52.018;21.036;2023-04-06T10:44:45;10.70;;;5.90;;
35506;SDS011;36461;52.018;21.036;2023-04-06T10:47:15;15.40;;;11.70;;
35506;SDS011;36461;52.018;21.036;2023-04-06T10:49:48;10.40;;;6.20;;
35506;SDS011;36461;52.018;21.036;2023-04-06T10:52:16;20.10;;;12.40;;
35506;SDS011;36461;52.018;21.036;2023-04-06T10:54:44;10.80;;;5.40;;
35506;SDS011;36461;52.018;21.036;2023-04-06T10:57:15;19.30;;;8.00;;
35506;SDS011;36461;52.018;21.036;2023-04-06T10:59:43;8.50;;;5.40;;
35506;SDS011;36461;52.018;21.036;2023-04-06T11:02:18;12.90;;;7.00;;
35506;SDS011;36461;52.018;21.036;2023-04-06T11:07:25;10.20;;;5.30;;
35506;SDS011;36461;52.018;21.036;2023-04-06T11:09:54;8.90;;;5.20;;
35506;SDS011;36461;52.018;21.036;2023-04-06T11:12:41;9.30;;;5.50;;
35506;SDS011;36461;52.018;21.036;2023-04-06T11:15:10;9.40;;;5.30;;
35506;SDS011;36461;52.018;21.036;2023-04-06T11:17:38;9.60;;;6.20;;
35506;SDS011;36461;52.018;21.036;2023-04-06T11:20:10;9.50;;;6.20;;
35506;SDS011;36461;52.018;21.036;2023-04-06T11:22:48;8.40;;;5.80;;
35506;SDS011;36461;52.018;21.036;2023-04-06T11:25:18;9.50;;;6.30;;
35506;SDS011;36461;52.018;21.036;2023-04-06T11:27:47;9.50;;;5.90;;
35506;SDS011;36461;52.018;21.036;2023-04-06T11:30:15;10.20;;;6.40;;
35506;SDS011;36461;52.018;21.036;2023-04-06T11:32:45;8.10;;;5.30;;
35506;SDS011;36461;52.018;21.036;2023-04-06T11:35:21;11.50;;;6.50;;
35506;SDS011;36461;52.018;21.036;2023-04-06T11:37:50;9.80;;;6.30;;
35506;SDS011;36461;52.018;21.036;2023-04-06T11:40:22;7.80;;;5.70;;
35506;SDS011;36461;52.018;21.036;2023-04-06T11:42:51;8.70;;;5.70;;
35506;SDS011;36461;52.018;21.036;2023-04-06T11:45:22;6.40;;;5.00;;
35506;SDS011;36461;52.018;21.036;2023-04-06T11:47:57;8.20;;;5.70;;
35506;SDS011;36461;52.018;21.036;2023-04-06T11:50:31;9.40;;;5.60;;
35506;SDS011;36461;52.018;21.036;2023-04-06T11:53:01;9.80;;;5.90;;
35506;SDS011;36461;52.018;21.036;2023-04-06T11:55:36;10.50;;;5.40;;
35506;SDS011;36461;52.018;21.036;2023-04-06T11:58:06;8.10;;;5.40;;
35506;SDS011;36461;52.018;21.036;2023-04-06T12:00:34;9.30;;;5.90;;
35506;SDS011;36461;52.018;21.036;2023-04-06T12:03:04;9.80;;;6.60;;
35506;SDS011;36461;52.018;21.036;2023-04-06T12:05:33;9.80;;;5.70;;
35506;SDS011;36461;52.018;21.036;2023-04-06T12:08:02;8.10;;;5.30;;
35506;SDS011;36461;52.018;21.036;2023-04-06T12:10:30;11.20;;;5.30;;
35506;SDS011;36461;52.018;21.036;2023-04-06T12:12:58;7.60;;;5.60;;
35506;SDS011;36461;52.018;21.036;2023-04-06T12:15:26;9.30;;;5.70;;
35506;SDS011;36461;52.018;21.036;2023-04-06T12:17:55;9.20;;;5.70;;
35506;SDS011;36461;52.018;21.036;2023-04-06T12:20:23;10.50;;;6.10;;
35506;SDS011;36461;52.018;21.036;2023-04-06T12:22:54;7.60;;;5.40;;
35506;SDS011;36461;52.018;21.036;2023-04-06T12:25:22;11.10;;;5.90;;
35506;SDS011;36461;52.018;21.036;2023-04-06T12:27:50;7.90;;;5.70;;
35506;SDS011;36461;52.018;21.036;2023-04-06T12:30:18;7.70;;;6.00;;
35506;SDS011;36461;52.018;21.036;2023-04-06T12:32:47;12.10;;;6.20;;
35506;SDS011;36461;52.018;21.036;2023-04-06T12:35:18;11.50;;;7.10;;
35506;SDS011;36461;52.018;21.036;2023-04-06T12:37:46;10.60;;;7.00;;
35506;SDS011;36461;52.018;21.036;2023-04-06T12:40:14;10.90;;;6.00;;
35506;SDS011;36461;52.018;21.036;2023-04-06T12:42:42;13.90;;;7.90;;
35506;SDS011;36461;52.018;21.036;2023-04-06T12:45:10;10.70;;;6.50;;
35506;SDS011;36461;52.018;21.036;2023-04-06T12:47:39;12.40;;;7.10;;
35506;SDS011;36461;52.018;21.036;2023-04-06T12:50:07;10.50;;;7.20;;
35506;SDS011;36461;52.018;21.036;2023-04-06T12:52:36;10.50;;;6.00;;
35506;SDS011;36461;52.018;21.036;2023-04-06T12:55:04;11.30;;;6.70;;
35506;SDS011;36461;52.018;21.036;2023-04-06T12:57:33;10.50;;;6.50;;
35506;SDS011;36461;52.018;21.036;2023-04-06T13:00:02;9.20;;;6.50;;
35506;SDS011;36461;52.018;21.036;2023-04-06T13:02:35;11.80;;;7.30;;
35506;SDS011;36461;52.018;21.036;2023-04-06T13:05:03;9.40;;;6.60;;
35506;SDS011;36461;52.018;21.036;2023-04-06T13:07:32;10.10;;;6.70;;
35506;SDS011;36461;52.018;21.036;2023-04-06T13:10:00;8.70;;;5.80;;
35506;SDS011;36461;52.018;21.036;2023-04-06T13:12:28;8.70;;;6.50;;
35506;SDS011;36461;52.018;21.036;2023-04-06T13:14:56;10.30;;;6.70;;
35506;SDS011;36461;52.018;21.036;2023-04-06T13:17:26;9.90;;;7.50;;
35506;SDS011;36461;52.018;21.036;2023-04-06T13:19:55;11.40;;;7.70;;
35506;SDS011;36461;52.018;21.036;2023-04-06T13:22:23;10.90;;;7.50;;
35506;SDS011;36461;52.018;21.036;2023-04-06T13:24:52;12.70;;;7.30;;
35506;SDS011;36461;52.018;21.036;2023-04-06T13:27:20;10.10;;;6.00;;
35506;SDS011;36461;52.018;21.036;2023-04-06T13:29:48;11.90;;;8.50;;
35506;SDS011;36461;52.018;21.036;2023-04-06T13:32:17;9.70;;;7.10;;
35506;SDS011;36461;52.018;21.036;2023-04-06T13:34:45;8.70;;;6.50;;
35506;SDS011;36461;52.018;21.036;2023-04-06T13:37:13;11.40;;;7.10;;
35506;SDS011;36461;52.018;21.036;2023-04-06T13:39:41;9.90;;;6.90;;
35506;SDS011;36461;52.018;21.036;2023-04-06T13:42:09;9.30;;;6.60;;
35506;SDS011;36461;52.018;21.036;2023-04-06T13:44:37;10.90;;;7.50;;
35506;SDS011;36461;52.018;21.036;2023-04-06T13:47:05;13.30;;;7.30;;
35506;SDS011;36461;52.018;21.036;2023-04-06T13:49:34;9.50;;;6.10;;
35506;SDS011;36461;52.018;21.036;2023-04-06T13:52:03;9.60;;;6.80;;
35506;SDS011;36461;52.018;21.036;2023-04-06T13:54:31;11.30;;;7.80;;
35506;SDS011;36461;52.018;21.036;2023-04-06T13:56:59;12.20;;;8.20;;
35506;SDS011;36461;52.018;21.036;2023-04-06T13:59:31;10.20;;;7.30;;
35506;SDS011;36461;52.018;21.036;2023-04-06T14:02:08;11.60;;;7.60;;
35506;SDS011;36461;52.018;21.036;2023-04-06T14:04:38;12.50;;;7.80;;
35506;SDS011;36461;52.018;21.036;2023-04-06T14:07:06;11.70;;;6.70;;
35506;SDS011;36461;52.018;21.036;2023-04-06T14:09:35;13.40;;;7.60;;
35506;SDS011;36461;52.018;21.036;2023-04-06T14:12:03;14.20;;;6.60;;
35506;SDS011;36461;52.018;21.036;2023-04-06T14:14:31;12.40;;;7.60;;
35506;SDS011;36461;52.018;21.036;2023-04-06T14:16:59;10.70;;;7.00;;
35506;SDS011;36461;52.018;21.036;2023-04-06T14:19:27;12.10;;;6.60;;
35506;SDS011;36461;52.018;21.036;2023-04-06T14:21:56;9.70;;;6.20;;
35506;SDS011;36461;52.018;21.036;2023-04-06T14:24:24;9.50;;;6.10;;
35506;SDS011;36461;52.018;21.036;2023-04-06T14:26:52;10.70;;;7.00;;
35506;SDS011;36461;52.018;21.036;2023-04-06T14:29:20;12.20;;;6.60;;
35506;SDS011;36461;52.018;21.036;2023-04-06T14:31:48;9.10;;;6.30;;
35506;SDS011;36461;52.018;21.036;2023-04-06T14:34:16;8.90;;;6.10;;
35506;SDS011;36461;52.018;21.036;2023-04-06T14:36:45;10.60;;;6.10;;
35506;SDS011;36461;52.018;21.036;2023-04-06T14:39:13;12.10;;;7.30;;
35506;SDS011;36461;52.018;21.036;2023-04-06T14:41:41;10.40;;;7.30;;
35506;SDS011;36461;52.018;21.036;2023-04-06T14:44:09;8.60;;;6.30;;
35506;SDS011;36461;52.018;21.036;2023-04-06T14:46:40;9.20;;;6.00;;
35506;SDS011;36461;52.018;21.036;2023-04-06T14:49:08;8.20;;;6.00;;
35506;SDS011;36461;52.018;21.036;2023-04-06T14:51:37;9.00;;;6.20;;
35506;SDS011;36461;52.018;21.036;2023-04-06T14:54:05;11.80;;;6.80;;
35506;SDS011;36461;52.018;21.036;2023-04-06T14:56:33;10.90;;;6.60;;
35506;SDS011;36461;52.018;21.036;2023-04-06T14:59:01;11.20;;;6.90;;
35506;SDS011;36461;52.018;21.036;2023-04-06T15:01:33;11.80;;;6.50;;